sensor_id;sensor_type;location;lat;lon;timestamp;temperature;humidity
84916;DHT22;75178;53.054;5.846;2024-02-21T00:00:04;9.00;99.90
84916;DHT22;75178;53.054;5.846;2024-02-21T00:02:48;9.00;99.90
84916;DHT22;75178;53.054;5.846;2024-02-21T00:05:32;9.00;99.90
84916;DHT22;75178;53.054;5.846;2024-02-21T00:08:16;9.00;99.90
84916;DHT22;75178;53.054;5.846;2024-02-21T00:11:02;8.90;99.90
84916;DHT22;75178;53.054;5.846;2024-02-21T00:13:46;8.90;99.90
84916;DHT22;75178;53.054;5.846;2024-02-21T00:16:31;8.90;99.90
84916;DHT22;75178;53.054;5.846;2024-02-21T00:19:15;8.90;99.90
84916;DHT22;75178;53.054;5.846;2024-02-21T00:21:59;8.90;99.90
84916;DHT22;75178;53.054;5.846;2024-02-21T00:24:43;8.90;99.90
84916;DHT22;75178;53.054;5.846;2024-02-21T00:27:28;8.90;99.90
84916;DHT22;75178;53.054;5.846;2024-02-21T00:30:13;8.90;99.90
84916;DHT22;75178;53.054;5.846;2024-02-21T00:32:57;8.90;99.90
84916;DHT22;75178;53.054;5.846;2024-02-21T00:35:41;8.90;99.90
84916;DHT22;75178;53.054;5.846;2024-02-21T00:38:25;8.90;99.90
84916;DHT22;75178;53.054;5.846;2024-02-21T00:41:09;8.80;99.90
84916;DHT22;75178;53.054;5.846;2024-02-21T00:43:55;8.80;99.90
84916;DHT22;75178;53.054;5.846;2024-02-21T00:46:39;8.90;99.90
84916;DHT22;75178;53.054;5.846;2024-02-21T00:49:23;8.90;99.90
84916;DHT22;75178;53.054;5.846;2024-02-21T00:52:07;8.80;99.90
84916;DHT22;75178;53.054;5.846;2024-02-21T00:54:52;8.80;99.90
84916;DHT22;75178;53.054;5.846;2024-02-21T00:57:36;8.90;99.90
84916;DHT22;75178;53.054;5.846;2024-02-21T01:00:22;8.80;99.90
84916;DHT22;75178;53.054;5.846;2024-02-21T01:03:06;8.80;99.90
84916;DHT22;75178;53.054;5.846;2024-02-21T01:05:50;8.80;99.90
84916;DHT22;75178;53.054;5.846;2024-02-21T01:08:34;8.80;99.90
84916;DHT22;75178;53.054;5.846;2024-02-21T01:11:19;8.80;99.90
84916;DHT22;75178;53.054;5.846;2024-02-21T01:14:03;8.80;99.90
84916;DHT22;75178;53.054;5.846;2024-02-21T01:16:48;8.80;99.90
84916;DHT22;75178;53.054;5.846;2024-02-21T01:19:32;8.80;99.90
84916;DHT22;75178;53.054;5.846;2024-02-21T01:22:16;8.80;99.90
84916;DHT22;75178;53.054;5.846;2024-02-21T01:25:00;8.80;99.90
84916;DHT22;75178;53.054;5.846;2024-02-21T01:27:45;8.80;99.90
84916;DHT22;75178;53.054;5.846;2024-02-21T01:30:29;8.80;99.90
84916;DHT22;75178;53.054;5.846;2024-02-21T01:33:14;8.80;99.90
84916;DHT22;75178;53.054;5.846;2024-02-21T01:35:58;8.80;99.90
84916;DHT22;75178;53.054;5.846;2024-02-21T01:38:42;8.80;99.90
84916;DHT22;75178;53.054;5.846;2024-02-21T01:41:26;8.80;99.90
84916;DHT22;75178;53.054;5.846;2024-02-21T01:44:10;8.80;99.90
84916;DHT22;75178;53.054;5.846;2024-02-21T01:46:54;8.80;99.90
84916;DHT22;75178;53.054;5.846;2024-02-21T01:49:40;8.80;99.90
84916;DHT22;75178;53.054;5.846;2024-02-21T01:52:24;8.80;99.90
84916;DHT22;75178;53.054;5.846;2024-02-21T01:55:09;8.80;99.90
84916;DHT22;75178;53.054;5.846;2024-02-21T01:57:54;8.80;99.90
84916;DHT22;75178;53.054;5.846;2024-02-21T02:00:40;8.80;99.90
84916;DHT22;75178;53.054;5.846;2024-02-21T02:03:26;8.80;99.90
84916;DHT22;75178;53.054;5.846;2024-02-21T02:06:11;8.80;99.90
84916;DHT22;75178;53.054;5.846;2024-02-21T02:08:55;8.80;99.90
84916;DHT22;75178;53.054;5.846;2024-02-21T02:11:41;8.70;99.90
84916;DHT22;75178;53.054;5.846;2024-02-21T02:14:26;8.80;99.90
84916;DHT22;75178;53.054;5.846;2024-02-21T02:17:10;8.70;99.90
84916;DHT22;75178;53.054;5.846;2024-02-21T02:19:54;8.70;99.90
84916;DHT22;75178;53.054;5.846;2024-02-21T02:22:43;8.70;99.90
84916;DHT22;75178;53.054;5.846;2024-02-21T02:25:29;8.80;99.90
84916;DHT22;75178;53.054;5.846;2024-02-21T02:28:13;8.70;99.90
84916;DHT22;75178;53.054;5.846;2024-02-21T02:30:57;8.70;99.90
84916;DHT22;75178;53.054;5.846;2024-02-21T02:33:42;8.80;99.90
84916;DHT22;75178;53.054;5.846;2024-02-21T02:36:27;8.70;99.90
84916;DHT22;75178;53.054;5.846;2024-02-21T02:39:11;8.70;99.90
84916;DHT22;75178;53.054;5.846;2024-02-21T02:41:56;8.70;99.90
84916;DHT22;75178;53.054;5.846;2024-02-21T02:44:40;8.70;99.90
84916;DHT22;75178;53.054;5.846;2024-02-21T02:47:24;8.80;99.90
84916;DHT22;75178;53.054;5.846;2024-02-21T02:50:09;8.80;99.90
84916;DHT22;75178;53.054;5.846;2024-02-21T02:52:54;8.80;99.90
84916;DHT22;75178;53.054;5.846;2024-02-21T02:55:38;8.80;99.90
84916;DHT22;75178;53.054;5.846;2024-02-21T02:58:24;8.80;99.90
84916;DHT22;75178;53.054;5.846;2024-02-21T03:01:08;8.80;99.90
84916;DHT22;75178;53.054;5.846;2024-02-21T03:03:52;8.80;99.90
84916;DHT22;75178;53.054;5.846;2024-02-21T03:06:36;8.80;99.90
84916;DHT22;75178;53.054;5.846;2024-02-21T03:09:20;8.80;99.90
84916;DHT22;75178;53.054;5.846;2024-02-21T03:12:05;8.80;99.90
84916;DHT22;75178;53.054;5.846;2024-02-21T03:14:51;8.80;99.90
84916;DHT22;75178;53.054;5.846;2024-02-21T03:17:35;8.80;99.90
84916;DHT22;75178;53.054;5.846;2024-02-21T03:20:19;8.80;99.90
84916;DHT22;75178;53.054;5.846;2024-02-21T03:23:03;8.80;99.90
84916;DHT22;75178;53.054;5.846;2024-02-21T03:25:48;8.80;99.90
84916;DHT22;75178;53.054;5.846;2024-02-21T03:28:32;8.80;99.90
84916;DHT22;75178;53.054;5.846;2024-02-21T03:31:17;8.80;99.90
84916;DHT22;75178;53.054;5.846;2024-02-21T03:34:01;8.80;99.90
84916;DHT22;75178;53.054;5.846;2024-02-21T03:36:45;8.80;99.90
84916;DHT22;75178;53.054;5.846;2024-02-21T03:39:31;8.80;99.90
84916;DHT22;75178;53.054;5.846;2024-02-21T03:42:15;8.80;99.90
84916;DHT22;75178;53.054;5.846;2024-02-21T03:44:59;8.80;99.90
84916;DHT22;75178;53.054;5.846;2024-02-21T03:47:45;8.80;99.90
84916;DHT22;75178;53.054;5.846;2024-02-21T03:50:29;8.80;99.90
84916;DHT22;75178;53.054;5.846;2024-02-21T03:53:13;8.80;99.90
84916;DHT22;75178;53.054;5.846;2024-02-21T03:55:57;8.80;99.90
84916;DHT22;75178;53.054;5.846;2024-02-21T03:58:41;8.80;99.90
84916;DHT22;75178;53.054;5.846;2024-02-21T04:01:25;8.80;99.90
84916;DHT22;75178;53.054;5.846;2024-02-21T04:04:11;8.80;99.90
84916;DHT22;75178;53.054;5.846;2024-02-21T04:06:55;8.80;99.90
84916;DHT22;75178;53.054;5.846;2024-02-21T04:09:39;8.80;99.90
84916;DHT22;75178;53.054;5.846;2024-02-21T04:12:23;8.70;99.90
84916;DHT22;75178;53.054;5.846;2024-02-21T04:15:08;8.80;99.90
84916;DHT22;75178;53.054;5.846;2024-02-21T04:17:53;8.70;99.90
84916;DHT22;75178;53.054;5.846;2024-02-21T04:20:38;8.80;99.90
84916;DHT22;75178;53.054;5.846;2024-02-21T04:23:22;8.80;99.90
84916;DHT22;75178;53.054;5.846;2024-02-21T04:26:07;8.80;99.90
84916;DHT22;75178;53.054;5.846;2024-02-21T04:28:51;8.80;99.90
84916;DHT22;75178;53.054;5.846;2024-02-21T04:31:35;8.70;99.90
84916;DHT22;75178;53.054;5.846;2024-02-21T04:34:19;8.80;99.90
84916;DHT22;75178;53.054;5.846;2024-02-21T04:37:06;8.70;99.90
84916;DHT22;75178;53.054;5.846;2024-02-21T04:39:50;8.70;99.90
84916;DHT22;75178;53.054;5.846;2024-02-21T04:42:34;8.70;99.90
84916;DHT22;75178;53.054;5.846;2024-02-21T04:45:18;8.70;99.90
84916;DHT22;75178;53.054;5.846;2024-02-21T04:48:03;8.70;99.90
84916;DHT22;75178;53.054;5.846;2024-02-21T04:50:48;8.70;99.90
84916;DHT22;75178;53.054;5.846;2024-02-21T04:53:33;8.70;99.90
84916;DHT22;75178;53.054;5.846;2024-02-21T04:56:17;8.70;99.90
84916;DHT22;75178;53.054;5.846;2024-02-21T04:59:01;8.70;99.90
84916;DHT22;75178;53.054;5.846;2024-02-21T05:01:45;8.60;99.90
84916;DHT22;75178;53.054;5.846;2024-02-21T05:04:30;8.60;99.90
84916;DHT22;75178;53.054;5.846;2024-02-21T05:07:14;8.60;99.90
84916;DHT22;75178;53.054;5.846;2024-02-21T05:09:59;8.60;99.90
84916;DHT22;75178;53.054;5.846;2024-02-21T05:12:44;8.60;99.90
84916;DHT22;75178;53.054;5.846;2024-02-21T05:15:28;8.60;99.90
84916;DHT22;75178;53.054;5.846;2024-02-21T05:18:12;8.60;99.90
84916;DHT22;75178;53.054;5.846;2024-02-21T05:20:56;8.60;99.90
84916;DHT22;75178;53.054;5.846;2024-02-21T05:23:40;8.60;99.90
84916;DHT22;75178;53.054;5.846;2024-02-21T05:26:26;8.60;99.90
84916;DHT22;75178;53.054;5.846;2024-02-21T05:29:11;8.60;99.90
84916;DHT22;75178;53.054;5.846;2024-02-21T05:31:56;8.60;99.90
84916;DHT22;75178;53.054;5.846;2024-02-21T05:34:40;8.60;99.90
84916;DHT22;75178;53.054;5.846;2024-02-21T05:37:24;8.70;99.90
84916;DHT22;75178;53.054;5.846;2024-02-21T05:40:09;8.60;99.90
84916;DHT22;75178;53.054;5.846;2024-02-21T05:42:55;8.60;99.90
84916;DHT22;75178;53.054;5.846;2024-02-21T05:45:39;8.60;99.90
84916;DHT22;75178;53.054;5.846;2024-02-21T05:48:24;8.60;99.90
84916;DHT22;75178;53.054;5.846;2024-02-21T05:51:08;8.60;99.90
84916;DHT22;75178;53.054;5.846;2024-02-21T05:53:53;8.60;99.90
84916;DHT22;75178;53.054;5.846;2024-02-21T05:56:37;8.70;99.90
84916;DHT22;75178;53.054;5.846;2024-02-21T05:59:22;8.70;99.90
84916;DHT22;75178;53.054;5.846;2024-02-21T06:02:06;8.70;99.90
84916;DHT22;75178;53.054;5.846;2024-02-21T06:04:51;8.70;99.90
84916;DHT22;75178;53.054;5.846;2024-02-21T06:07:35;8.70;99.90
84916;DHT22;75178;53.054;5.846;2024-02-21T06:10:19;8.60;99.90
84916;DHT22;75178;53.054;5.846;2024-02-21T06:13:03;8.70;99.90
84916;DHT22;75178;53.054;5.846;2024-02-21T06:15:49;8.70;99.90
84916;DHT22;75178;53.054;5.846;2024-02-21T06:18:35;8.70;99.90
84916;DHT22;75178;53.054;5.846;2024-02-21T06:21:19;8.70;99.90
84916;DHT22;75178;53.054;5.846;2024-02-21T06:24:04;8.70;99.90
84916;DHT22;75178;53.054;5.846;2024-02-21T06:26:49;8.70;99.90
84916;DHT22;75178;53.054;5.846;2024-02-21T06:29:33;8.70;99.90
84916;DHT22;75178;53.054;5.846;2024-02-21T06:32:19;8.70;99.90
84916;DHT22;75178;53.054;5.846;2024-02-21T06:35:03;8.70;99.90
84916;DHT22;75178;53.054;5.846;2024-02-21T06:37:48;8.70;99.90
84916;DHT22;75178;53.054;5.846;2024-02-21T06:40:33;8.70;99.90
84916;DHT22;75178;53.054;5.846;2024-02-21T06:43:18;8.70;99.90
84916;DHT22;75178;53.054;5.846;2024-02-21T06:46:02;8.70;99.90
84916;DHT22;75178;53.054;5.846;2024-02-21T06:48:48;8.70;99.90
84916;DHT22;75178;53.054;5.846;2024-02-21T06:51:33;8.70;99.90
84916;DHT22;75178;53.054;5.846;2024-02-21T06:54:17;8.70;99.90
84916;DHT22;75178;53.054;5.846;2024-02-21T06:57:01;8.70;99.90
84916;DHT22;75178;53.054;5.846;2024-02-21T06:59:45;8.70;99.90
84916;DHT22;75178;53.054;5.846;2024-02-21T07:02:29;8.70;99.90
84916;DHT22;75178;53.054;5.846;2024-02-21T07:05:14;8.70;99.90
84916;DHT22;75178;53.054;5.846;2024-02-21T07:07:58;8.70;99.90
84916;DHT22;75178;53.054;5.846;2024-02-21T07:10:42;8.70;99.90
84916;DHT22;75178;53.054;5.846;2024-02-21T07:13:26;8.70;99.90
84916;DHT22;75178;53.054;5.846;2024-02-21T07:16:11;8.70;99.90
84916;DHT22;75178;53.054;5.846;2024-02-21T07:18:55;8.80;99.90
84916;DHT22;75178;53.054;5.846;2024-02-21T07:21:40;8.80;99.90
84916;DHT22;75178;53.054;5.846;2024-02-21T07:24:25;8.70;99.90
84916;DHT22;75178;53.054;5.846;2024-02-21T07:27:09;8.80;99.90
84916;DHT22;75178;53.054;5.846;2024-02-21T07:29:53;8.80;99.90
84916;DHT22;75178;53.054;5.846;2024-02-21T07:32:38;8.80;99.90
84916;DHT22;75178;53.054;5.846;2024-02-21T07:35:22;8.80;99.90
84916;DHT22;75178;53.054;5.846;2024-02-21T07:38:07;8.70;99.90
84916;DHT22;75178;53.054;5.846;2024-02-21T07:40:52;8.70;99.90
84916;DHT22;75178;53.054;5.846;2024-02-21T07:43:36;8.70;99.90
84916;DHT22;75178;53.054;5.846;2024-02-21T07:46:20;8.70;99.90
84916;DHT22;75178;53.054;5.846;2024-02-21T07:49:04;8.70;99.90
84916;DHT22;75178;53.054;5.846;2024-02-21T07:51:48;8.70;99.90
84916;DHT22;75178;53.054;5.846;2024-02-21T07:54:33;8.70;99.90
84916;DHT22;75178;53.054;5.846;2024-02-21T07:57:17;8.70;99.90
84916;DHT22;75178;53.054;5.846;2024-02-21T08:00:02;8.60;99.90
84916;DHT22;75178;53.054;5.846;2024-02-21T08:02:48;8.60;99.90
84916;DHT22;75178;53.054;5.846;2024-02-21T08:05:34;8.60;99.90
84916;DHT22;75178;53.054;5.846;2024-02-21T08:08:18;8.60;99.90
84916;DHT22;75178;53.054;5.846;2024-02-21T08:11:04;8.60;99.90
84916;DHT22;75178;53.054;5.846;2024-02-21T08:13:48;8.60;99.90
84916;DHT22;75178;53.054;5.846;2024-02-21T08:16:32;8.60;99.90
84916;DHT22;75178;53.054;5.846;2024-02-21T08:19:16;8.70;99.90
84916;DHT22;75178;53.054;5.846;2024-02-21T08:22:00;8.70;99.90
84916;DHT22;75178;53.054;5.846;2024-02-21T08:24:44;8.70;99.90
84916;DHT22;75178;53.054;5.846;2024-02-21T08:27:30;8.70;99.90
84916;DHT22;75178;53.054;5.846;2024-02-21T08:30:14;8.70;99.90
84916;DHT22;75178;53.054;5.846;2024-02-21T08:32:59;8.70;99.90
84916;DHT22;75178;53.054;5.846;2024-02-21T08:35:43;8.70;99.90
84916;DHT22;75178;53.054;5.846;2024-02-21T08:38:27;8.70;99.90
84916;DHT22;75178;53.054;5.846;2024-02-21T08:41:11;8.70;99.90
84916;DHT22;75178;53.054;5.846;2024-02-21T08:43:57;8.70;99.90
84916;DHT22;75178;53.054;5.846;2024-02-21T08:46:42;8.70;99.90
84916;DHT22;75178;53.054;5.846;2024-02-21T08:49:26;8.80;99.90
84916;DHT22;75178;53.054;5.846;2024-02-21T08:52:10;8.80;99.90
84916;DHT22;75178;53.054;5.846;2024-02-21T08:54:54;8.80;99.90
84916;DHT22;75178;53.054;5.846;2024-02-21T08:57:38;8.80;99.90
84916;DHT22;75178;53.054;5.846;2024-02-21T09:00:24;8.80;99.90
84916;DHT22;75178;53.054;5.846;2024-02-21T09:03:08;8.80;99.90
84916;DHT22;75178;53.054;5.846;2024-02-21T09:05:53;8.90;99.90
84916;DHT22;75178;53.054;5.846;2024-02-21T09:08:37;8.90;99.90
84916;DHT22;75178;53.054;5.846;2024-02-21T09:11:21;8.90;99.90
84916;DHT22;75178;53.054;5.846;2024-02-21T09:14:05;8.90;99.90
84916;DHT22;75178;53.054;5.846;2024-02-21T09:16:51;8.90;99.90
84916;DHT22;75178;53.054;5.846;2024-02-21T09:19:35;8.90;99.90
84916;DHT22;75178;53.054;5.846;2024-02-21T09:22:19;8.90;99.90
84916;DHT22;75178;53.054;5.846;2024-02-21T09:25:04;8.90;99.90
84916;DHT22;75178;53.054;5.846;2024-02-21T09:27:49;9.00;99.90
84916;DHT22;75178;53.054;5.846;2024-02-21T09:30:33;9.00;99.90
84916;DHT22;75178;53.054;5.846;2024-02-21T09:33:18;9.00;99.90
84916;DHT22;75178;53.054;5.846;2024-02-21T09:36:03;9.10;99.90
84916;DHT22;75178;53.054;5.846;2024-02-21T09:38:47;9.10;99.90
84916;DHT22;75178;53.054;5.846;2024-02-21T09:41:32;9.10;99.90
84916;DHT22;75178;53.054;5.846;2024-02-21T09:44:20;9.20;99.90
84916;DHT22;75178;53.054;5.846;2024-02-21T09:47:09;9.20;99.90
84916;DHT22;75178;53.054;5.846;2024-02-21T09:49:55;9.20;99.90
84916;DHT22;75178;53.054;5.846;2024-02-21T09:52:39;9.20;99.90
84916;DHT22;75178;53.054;5.846;2024-02-21T09:55:24;9.30;99.90
84916;DHT22;75178;53.054;5.846;2024-02-21T09:58:10;9.30;99.90
84916;DHT22;75178;53.054;5.846;2024-02-21T10:00:55;9.30;99.90
84916;DHT22;75178;53.054;5.846;2024-02-21T10:03:39;9.30;99.90
84916;DHT22;75178;53.054;5.846;2024-02-21T10:06:25;9.30;99.90
84916;DHT22;75178;53.054;5.846;2024-02-21T10:09:20;9.30;99.90
84916;DHT22;75178;53.054;5.846;2024-02-21T10:12:08;9.30;99.90
84916;DHT22;75178;53.054;5.846;2024-02-21T10:15:00;9.40;99.90
84916;DHT22;75178;53.054;5.846;2024-02-21T10:17:44;9.40;99.90
84916;DHT22;75178;53.054;5.846;2024-02-21T10:20:29;9.40;99.90
84916;DHT22;75178;53.054;5.846;2024-02-21T10:23:14;9.40;99.90
84916;DHT22;75178;53.054;5.846;2024-02-21T10:26:05;9.50;99.90
84916;DHT22;75178;53.054;5.846;2024-02-21T10:28:50;9.50;99.90
84916;DHT22;75178;53.054;5.846;2024-02-21T10:31:34;9.60;99.90
84916;DHT22;75178;53.054;5.846;2024-02-21T10:34:18;9.60;99.90
84916;DHT22;75178;53.054;5.846;2024-02-21T10:37:03;9.60;99.90
84916;DHT22;75178;53.054;5.846;2024-02-21T10:39:49;9.60;99.90
84916;DHT22;75178;53.054;5.846;2024-02-21T10:42:35;9.60;99.90
84916;DHT22;75178;53.054;5.846;2024-02-21T10:45:23;9.70;99.90
84916;DHT22;75178;53.054;5.846;2024-02-21T10:48:12;9.70;99.90
84916;DHT22;75178;53.054;5.846;2024-02-21T10:50:57;9.70;99.90
84916;DHT22;75178;53.054;5.846;2024-02-21T10:53:50;9.70;99.90
84916;DHT22;75178;53.054;5.846;2024-02-21T10:56:39;9.70;99.90
84916;DHT22;75178;53.054;5.846;2024-02-21T10:59:23;9.60;99.90
84916;DHT22;75178;53.054;5.846;2024-02-21T11:02:08;9.60;99.90
84916;DHT22;75178;53.054;5.846;2024-02-21T11:04:53;9.70;99.90
84916;DHT22;75178;53.054;5.846;2024-02-21T11:07:38;9.70;99.90
84916;DHT22;75178;53.054;5.846;2024-02-21T11:10:24;9.70;99.90
84916;DHT22;75178;53.054;5.846;2024-02-21T11:13:11;9.70;99.90
84916;DHT22;75178;53.054;5.846;2024-02-21T11:16:06;9.70;99.90
84916;DHT22;75178;53.054;5.846;2024-02-21T11:18:50;9.70;99.90
84916;DHT22;75178;53.054;5.846;2024-02-21T11:21:34;9.70;99.90
84916;DHT22;75178;53.054;5.846;2024-02-21T11:24:29;9.70;99.90
84916;DHT22;75178;53.054;5.846;2024-02-21T11:27:15;9.70;99.90
84916;DHT22;75178;53.054;5.846;2024-02-21T11:30:04;9.70;99.90
84916;DHT22;75178;53.054;5.846;2024-02-21T11:32:49;9.70;99.90
84916;DHT22;75178;53.054;5.846;2024-02-21T11:35:34;9.60;99.90
84916;DHT22;75178;53.054;5.846;2024-02-21T11:38:18;9.60;99.90
84916;DHT22;75178;53.054;5.846;2024-02-21T11:41:03;9.60;99.90
84916;DHT22;75178;53.054;5.846;2024-02-21T11:43:52;9.50;99.90
84916;DHT22;75178;53.054;5.846;2024-02-21T11:46:38;9.50;99.90
84916;DHT22;75178;53.054;5.846;2024-02-21T11:49:25;9.50;99.90
84916;DHT22;75178;53.054;5.846;2024-02-21T11:52:09;9.50;99.90
84916;DHT22;75178;53.054;5.846;2024-02-21T11:54:53;9.50;99.90
84916;DHT22;75178;53.054;5.846;2024-02-21T11:57:38;9.40;99.90
84916;DHT22;75178;53.054;5.846;2024-02-21T12:00:23;9.50;99.90
84916;DHT22;75178;53.054;5.846;2024-02-21T12:03:09;9.50;99.90
84916;DHT22;75178;53.054;5.846;2024-02-21T12:05:53;9.50;99.90
84916;DHT22;75178;53.054;5.846;2024-02-21T12:08:41;9.50;99.90
84916;DHT22;75178;53.054;5.846;2024-02-21T12:11:25;9.60;99.90
84916;DHT22;75178;53.054;5.846;2024-02-21T12:14:10;9.60;99.90
84916;DHT22;75178;53.054;5.846;2024-02-21T12:16:54;9.60;99.90
84916;DHT22;75178;53.054;5.846;2024-02-21T12:19:39;9.60;99.90
84916;DHT22;75178;53.054;5.846;2024-02-21T12:22:25;9.70;99.90
84916;DHT22;75178;53.054;5.846;2024-02-21T12:25:16;9.70;99.90
84916;DHT22;75178;53.054;5.846;2024-02-21T12:28:00;9.70;99.90
84916;DHT22;75178;53.054;5.846;2024-02-21T12:30:44;9.70;99.90
84916;DHT22;75178;53.054;5.846;2024-02-21T12:33:29;9.70;99.90
84916;DHT22;75178;53.054;5.846;2024-02-21T12:36:15;9.70;99.90
84916;DHT22;75178;53.054;5.846;2024-02-21T12:38:59;9.70;99.90
84916;DHT22;75178;53.054;5.846;2024-02-21T12:41:44;9.70;99.90
84916;DHT22;75178;53.054;5.846;2024-02-21T12:44:28;9.70;99.90
84916;DHT22;75178;53.054;5.846;2024-02-21T12:47:12;9.70;99.90
84916;DHT22;75178;53.054;5.846;2024-02-21T12:49:57;9.70;99.90
84916;DHT22;75178;53.054;5.846;2024-02-21T12:52:42;9.70;99.90
84916;DHT22;75178;53.054;5.846;2024-02-21T12:55:27;9.70;99.90
84916;DHT22;75178;53.054;5.846;2024-02-21T12:58:11;9.70;99.90
84916;DHT22;75178;53.054;5.846;2024-02-21T13:00:55;9.70;99.90
84916;DHT22;75178;53.054;5.846;2024-02-21T13:03:39;9.70;99.90
84916;DHT22;75178;53.054;5.846;2024-02-21T13:06:24;9.70;99.90
84916;DHT22;75178;53.054;5.846;2024-02-21T13:09:09;9.70;99.90
84916;DHT22;75178;53.054;5.846;2024-02-21T13:11:53;9.70;99.90
84916;DHT22;75178;53.054;5.846;2024-02-21T13:14:37;9.70;99.90
84916;DHT22;75178;53.054;5.846;2024-02-21T13:17:21;9.80;99.90
84916;DHT22;75178;53.054;5.846;2024-02-21T13:20:06;9.80;99.90
84916;DHT22;75178;53.054;5.846;2024-02-21T13:22:51;9.80;99.90
84916;DHT22;75178;53.054;5.846;2024-02-21T13:25:36;9.90;99.90
84916;DHT22;75178;53.054;5.846;2024-02-21T13:28:20;9.80;99.90
84916;DHT22;75178;53.054;5.846;2024-02-21T13:31:05;9.90;99.90
84916;DHT22;75178;53.054;5.846;2024-02-21T13:33:49;9.90;99.90
84916;DHT22;75178;53.054;5.846;2024-02-21T13:36:33;9.80;99.90
84916;DHT22;75178;53.054;5.846;2024-02-21T13:39:17;9.80;99.90
84916;DHT22;75178;53.054;5.846;2024-02-21T13:42:03;9.80;99.90
84916;DHT22;75178;53.054;5.846;2024-02-21T13:44:47;9.80;99.90
84916;DHT22;75178;53.054;5.846;2024-02-21T13:47:31;9.80;99.90
84916;DHT22;75178;53.054;5.846;2024-02-21T13:50:15;9.80;99.90
84916;DHT22;75178;53.054;5.846;2024-02-21T13:53:00;9.80;99.90
84916;DHT22;75178;53.054;5.846;2024-02-21T13:55:44;9.80;99.90
84916;DHT22;75178;53.054;5.846;2024-02-21T13:58:29;9.70;99.90
84916;DHT22;75178;53.054;5.846;2024-02-21T14:01:14;9.70;99.90
84916;DHT22;75178;53.054;5.846;2024-02-21T14:03:58;9.70;99.90
84916;DHT22;75178;53.054;5.846;2024-02-21T14:06:42;9.60;99.90
84916;DHT22;75178;53.054;5.846;2024-02-21T14:09:26;9.70;99.90
84916;DHT22;75178;53.054;5.846;2024-02-21T14:12:10;9.60;99.90
84916;DHT22;75178;53.054;5.846;2024-02-21T14:14:56;9.60;99.90
84916;DHT22;75178;53.054;5.846;2024-02-21T14:17:40;9.50;99.90
84916;DHT22;75178;53.054;5.846;2024-02-21T14:20:24;9.60;99.90
84916;DHT22;75178;53.054;5.846;2024-02-21T14:23:08;9.50;99.90
84916;DHT22;75178;53.054;5.846;2024-02-21T14:25:52;9.50;99.90
84916;DHT22;75178;53.054;5.846;2024-02-21T14:28:36;9.50;99.90
84916;DHT22;75178;53.054;5.846;2024-02-21T14:31:22;9.50;99.90
84916;DHT22;75178;53.054;5.846;2024-02-21T14:34:07;9.40;99.90
84916;DHT22;75178;53.054;5.846;2024-02-21T14:36:51;9.50;99.90
84916;DHT22;75178;53.054;5.846;2024-02-21T14:39:35;9.40;99.90
84916;DHT22;75178;53.054;5.846;2024-02-21T14:42:19;9.40;99.90
84916;DHT22;75178;53.054;5.846;2024-02-21T14:45:04;9.40;99.90
84916;DHT22;75178;53.054;5.846;2024-02-21T14:47:50;9.50;99.90
84916;DHT22;75178;53.054;5.846;2024-02-21T14:50:34;9.40;99.90
84916;DHT22;75178;53.054;5.846;2024-02-21T14:53:18;9.40;99.90
84916;DHT22;75178;53.054;5.846;2024-02-21T14:56:02;9.40;99.90
84916;DHT22;75178;53.054;5.846;2024-02-21T14:58:47;9.40;99.90
84916;DHT22;75178;53.054;5.846;2024-02-21T15:01:36;9.40;99.90
84916;DHT22;75178;53.054;5.846;2024-02-21T15:04:22;9.40;99.90
84916;DHT22;75178;53.054;5.846;2024-02-21T15:07:06;9.40;99.90
84916;DHT22;75178;53.054;5.846;2024-02-21T15:09:50;9.40;99.90
84916;DHT22;75178;53.054;5.846;2024-02-21T15:12:34;9.50;99.90
84916;DHT22;75178;53.054;5.846;2024-02-21T15:15:18;9.50;99.90
84916;DHT22;75178;53.054;5.846;2024-02-21T15:18:02;9.40;99.90
84916;DHT22;75178;53.054;5.846;2024-02-21T15:20:48;9.50;99.90
84916;DHT22;75178;53.054;5.846;2024-02-21T15:23:32;9.50;99.90
84916;DHT22;75178;53.054;5.846;2024-02-21T15:26:17;9.50;99.90
84916;DHT22;75178;53.054;5.846;2024-02-21T15:29:01;9.50;99.90
84916;DHT22;75178;53.054;5.846;2024-02-21T15:31:45;9.50;99.90
84916;DHT22;75178;53.054;5.846;2024-02-21T15:34:29;9.40;99.90
84916;DHT22;75178;53.054;5.846;2024-02-21T15:37:14;9.40;99.90
84916;DHT22;75178;53.054;5.846;2024-02-21T15:39:59;9.40;99.90
84916;DHT22;75178;53.054;5.846;2024-02-21T15:42:43;9.40;99.90
84916;DHT22;75178;53.054;5.846;2024-02-21T15:45:27;9.30;99.90
84916;DHT22;75178;53.054;5.846;2024-02-21T15:48:11;9.30;99.90
84916;DHT22;75178;53.054;5.846;2024-02-21T15:50:55;9.30;99.90
84916;DHT22;75178;53.054;5.846;2024-02-21T15:53:41;9.30;99.90
84916;DHT22;75178;53.054;5.846;2024-02-21T15:56:25;9.20;99.90
84916;DHT22;75178;53.054;5.846;2024-02-21T15:59:09;9.20;99.90
84916;DHT22;75178;53.054;5.846;2024-02-21T16:01:53;9.20;99.90
84916;DHT22;75178;53.054;5.846;2024-02-21T16:04:37;9.20;99.90
84916;DHT22;75178;53.054;5.846;2024-02-21T16:07:21;9.10;99.90
84916;DHT22;75178;53.054;5.846;2024-02-21T16:10:08;9.10;99.90
84916;DHT22;75178;53.054;5.846;2024-02-21T16:12:52;9.10;99.90
84916;DHT22;75178;53.054;5.846;2024-02-21T16:15:37;9.10;99.90
84916;DHT22;75178;53.054;5.846;2024-02-21T16:18:21;9.10;99.90
84916;DHT22;75178;53.054;5.846;2024-02-21T16:21:05;9.10;99.90
84916;DHT22;75178;53.054;5.846;2024-02-21T16:23:49;9.00;99.90
84916;DHT22;75178;53.054;5.846;2024-02-21T16:26:35;9.00;99.90
84916;DHT22;75178;53.054;5.846;2024-02-21T16:29:20;9.00;99.90
84916;DHT22;75178;53.054;5.846;2024-02-21T16:32:04;9.00;99.90
84916;DHT22;75178;53.054;5.846;2024-02-21T16:34:48;9.00;99.90
84916;DHT22;75178;53.054;5.846;2024-02-21T16:37:33;8.90;99.90
84916;DHT22;75178;53.054;5.846;2024-02-21T16:40:17;8.90;99.90
84916;DHT22;75178;53.054;5.846;2024-02-21T16:43:02;8.90;99.90
84916;DHT22;75178;53.054;5.846;2024-02-21T16:45:46;8.90;99.90
84916;DHT22;75178;53.054;5.846;2024-02-21T16:48:30;8.90;99.90
84916;DHT22;75178;53.054;5.846;2024-02-21T16:51:14;8.90;99.90
84916;DHT22;75178;53.054;5.846;2024-02-21T16:53:58;8.90;99.90
84916;DHT22;75178;53.054;5.846;2024-02-21T16:56:43;8.90;99.90
84916;DHT22;75178;53.054;5.846;2024-02-21T16:59:28;8.90;99.90
84916;DHT22;75178;53.054;5.846;2024-02-21T17:02:12;8.90;99.90
84916;DHT22;75178;53.054;5.846;2024-02-21T17:04:57;8.80;99.90
84916;DHT22;75178;53.054;5.846;2024-02-21T17:07:41;8.80;99.90
84916;DHT22;75178;53.054;5.846;2024-02-21T17:10:25;8.80;99.90
84916;DHT22;75178;53.054;5.846;2024-02-21T17:13:09;8.80;99.90
84916;DHT22;75178;53.054;5.846;2024-02-21T17:15:55;8.70;99.90
84916;DHT22;75178;53.054;5.846;2024-02-21T17:18:39;8.70;99.90
84916;DHT22;75178;53.054;5.846;2024-02-21T17:21:24;8.70;99.90
84916;DHT22;75178;53.054;5.846;2024-02-21T17:24:08;8.70;99.90
84916;DHT22;75178;53.054;5.846;2024-02-21T17:26:52;8.70;99.90
84916;DHT22;75178;53.054;5.846;2024-02-21T17:29:36;8.70;99.90
84916;DHT22;75178;53.054;5.846;2024-02-21T17:32:23;8.60;99.90
84916;DHT22;75178;53.054;5.846;2024-02-21T17:35:08;8.70;99.90